sensor_id;sensor_type;location;lat;lon;timestamp;pressure;altitude;pressure_sealevel;temperature;humidity
48810;BME280;40070;47.322;18.784;2022-10-31T00:00:29;1009.66;;;14.88;74.41
48810;BME280;40070;47.322;18.784;2022-10-31T00:02:32;1009.55;;;14.84;74.00
48810;BME280;40070;47.322;18.784;2022-10-31T00:04:34;1009.59;;;14.77;74.52
48810;BME280;40070;47.322;18.784;2022-10-31T00:06:36;1009.56;;;14.82;74.24
48810;BME280;40070;47.322;18.784;2022-10-31T00:08:39;1009.62;;;14.70;74.52
48810;BME280;40070;47.322;18.784;2022-10-31T00:10:42;1009.63;;;14.79;74.32
48810;BME280;40070;47.322;18.784;2022-10-31T00:12:44;1009.63;;;14.66;74.70
48810;BME280;40070;47.322;18.784;2022-10-31T00:14:47;1009.56;;;14.75;74.53
48810;BME280;40070;47.322;18.784;2022-10-31T00:16:49;1009.53;;;14.56;74.94
48810;BME280;40070;47.322;18.784;2022-10-31T00:18:52;1009.50;;;14.53;75.31
48810;BME280;40070;47.322;18.784;2022-10-31T00:20:58;1009.51;;;14.54;75.33
48810;BME280;40070;47.322;18.784;2022-10-31T00:23:00;1009.52;;;14.55;75.22
48810;BME280;40070;47.322;18.784;2022-10-31T00:25:03;1009.57;;;14.42;75.39
48810;BME280;40070;47.322;18.784;2022-10-31T00:27:06;1009.57;;;14.53;75.23
48810;BME280;40070;47.322;18.784;2022-10-31T00:29:08;1009.56;;;14.36;75.72
48810;BME280;40070;47.322;18.784;2022-10-31T00:31:11;1009.51;;;14.37;75.83
48810;BME280;40070;47.322;18.784;2022-10-31T00:33:13;1009.49;;;14.24;76.14
48810;BME280;40070;47.322;18.784;2022-10-31T00:35:16;1009.49;;;14.41;75.79
48810;BME280;40070;47.322;18.784;2022-10-31T00:37:18;1009.49;;;14.42;75.49
48810;BME280;40070;47.322;18.784;2022-10-31T00:39:21;1009.45;;;14.50;75.48
48810;BME280;40070;47.322;18.784;2022-10-31T00:41:23;1009.41;;;14.66;74.78
48810;BME280;40070;47.322;18.784;2022-10-31T00:43:25;1009.39;;;14.76;74.44
48810;BME280;40070;47.322;18.784;2022-10-31T00:45:28;1009.36;;;14.57;74.82
48810;BME280;40070;47.322;18.784;2022-10-31T00:47:30;1009.37;;;14.39;75.50
48810;BME280;40070;47.322;18.784;2022-10-31T00:49:32;1009.33;;;14.40;75.50
48810;BME280;40070;47.322;18.784;2022-10-31T00:51:35;1009.33;;;14.43;75.22
48810;BME280;40070;47.322;18.784;2022-10-31T00:53:37;1009.36;;;14.46;74.93
48810;BME280;40070;47.322;18.784;2022-10-31T00:55:39;1009.32;;;14.40;75.18
48810;BME280;40070;47.322;18.784;2022-10-31T00:57:42;1009.32;;;14.19;75.95
48810;BME280;40070;47.322;18.784;2022-10-31T00:59:44;1009.34;;;14.29;75.81
48810;BME280;40070;47.322;18.784;2022-10-31T01:01:46;1009.27;;;14.44;75.13
48810;BME280;40070;47.322;18.784;2022-10-31T01:03:49;1009.30;;;14.33;75.15
48810;BME280;40070;47.322;18.784;2022-10-31T01:06:10;1009.31;;;14.13;75.85
48810;BME280;40070;47.322;18.784;2022-10-31T01:08:09;1009.31;;;14.09;76.23
48810;BME280;40070;47.322;18.784;2022-10-31T01:10:11;1009.29;;;13.98;76.45
48810;BME280;40070;47.322;18.784;2022-10-31T01:12:13;1009.30;;;14.10;76.41
48810;BME280;40070;47.322;18.784;2022-10-31T01:14:16;1009.29;;;14.06;76.24
48810;BME280;40070;47.322;18.784;2022-10-31T01:16:19;1009.28;;;14.19;75.92
48810;BME280;40070;47.322;18.784;2022-10-31T01:18:22;1009.26;;;14.32;75.29
48810;BME280;40070;47.322;18.784;2022-10-31T01:20:24;1009.24;;;14.19;75.95
48810;BME280;40070;47.322;18.784;2022-10-31T01:22:27;1009.21;;;14.25;75.84
48810;BME280;40070;47.322;18.784;2022-10-31T01:24:29;1009.26;;;14.28;75.46
48810;BME280;40070;47.322;18.784;2022-10-31T01:26:32;1009.25;;;14.13;75.80
48810;BME280;40070;47.322;18.784;2022-10-31T01:28:35;1009.23;;;14.02;76.41
48810;BME280;40070;47.322;18.784;2022-10-31T01:30:38;1009.18;;;14.00;77.08
48810;BME280;40070;47.322;18.784;2022-10-31T01:32:40;1009.21;;;14.16;76.33
48810;BME280;40070;47.322;18.784;2022-10-31T01:34:42;1009.21;;;14.28;75.75
48810;BME280;40070;47.322;18.784;2022-10-31T01:36:45;1009.23;;;14.34;75.40
48810;BME280;40070;47.322;18.784;2022-10-31T01:38:48;1009.24;;;14.15;75.98
48810;BME280;40070;47.322;18.784;2022-10-31T01:40:51;1009.25;;;14.21;75.74
48810;BME280;40070;47.322;18.784;2022-10-31T01:42:53;1009.22;;;14.16;75.97
48810;BME280;40070;47.322;18.784;2022-10-31T01:44:57;1009.24;;;14.39;74.91
48810;BME280;40070;47.322;18.784;2022-10-31T01:47:05;1009.27;;;14.23;75.16
48810;BME280;40070;47.322;18.784;2022-10-31T01:49:11;1009.23;;;13.88;75.92
48810;BME280;40070;47.322;18.784;2022-10-31T01:51:15;1009.23;;;13.65;77.32
48810;BME280;40070;47.322;18.784;2022-10-31T01:53:18;1009.21;;;13.93;76.33
48810;BME280;40070;47.322;18.784;2022-10-31T01:55:25;1009.18;;;14.04;75.82
48810;BME280;40070;47.322;18.784;2022-10-31T01:57:28;1009.21;;;14.20;75.20
48810;BME280;40070;47.322;18.784;2022-10-31T01:59:32;1009.16;;;14.09;75.20
48810;BME280;40070;47.322;18.784;2022-10-31T02:01:37;1009.20;;;13.97;76.04
48810;BME280;40070;47.322;18.784;2022-10-31T02:03:39;1009.18;;;14.05;75.37
48810;BME280;40070;47.322;18.784;2022-10-31T02:05:42;1009.17;;;14.09;75.26
48810;BME280;40070;47.322;18.784;2022-10-31T02:07:55;1009.14;;;14.16;75.14
48810;BME280;40070;47.322;18.784;2022-10-31T02:10:00;1009.10;;;14.41;74.30
48810;BME280;40070;47.322;18.784;2022-10-31T02:12:02;1009.15;;;14.47;73.89
48810;BME280;40070;47.322;18.784;2022-10-31T02:14:05;1009.18;;;14.35;74.19
48810;BME280;40070;47.322;18.784;2022-10-31T02:16:08;1009.17;;;14.44;74.06
48810;BME280;40070;47.322;18.784;2022-10-31T02:18:11;1009.16;;;14.47;73.95
48810;BME280;40070;47.322;18.784;2022-10-31T02:20:17;1009.15;;;14.22;74.36
48810;BME280;40070;47.322;18.784;2022-10-31T02:22:26;1009.13;;;14.29;74.36
48810;BME280;40070;47.322;18.784;2022-10-31T02:24:40;1009.12;;;14.37;74.20
48810;BME280;40070;47.322;18.784;2022-10-31T02:33:43;1009.14;;;14.17;75.28
48810;BME280;40070;47.322;18.784;2022-10-31T02:40:22;1009.12;;;14.26;74.86
48810;BME280;40070;47.322;18.784;2022-10-31T02:42:47;1009.13;;;14.18;75.07
48810;BME280;40070;47.322;18.784;2022-10-31T02:44:49;1009.11;;;14.18;75.18
48810;BME280;40070;47.322;18.784;2022-10-31T02:46:57;1009.14;;;13.99;75.93
48810;BME280;40070;47.322;18.784;2022-10-31T02:49:11;1009.13;;;13.95;75.84
48810;BME280;40070;47.322;18.784;2022-10-31T02:51:18;1009.15;;;13.98;75.56
48810;BME280;40070;47.322;18.784;2022-10-31T02:53:21;1009.17;;;13.83;75.78
48810;BME280;40070;47.322;18.784;2022-10-31T02:57:40;1009.16;;;13.96;75.45
48810;BME280;40070;47.322;18.784;2022-10-31T02:59:45;1009.17;;;13.85;75.65
48810;BME280;40070;47.322;18.784;2022-10-31T03:01:55;1009.16;;;13.99;74.89
48810;BME280;40070;47.322;18.784;2022-10-31T03:04:16;1009.11;;;13.70;76.03
48810;BME280;40070;47.322;18.784;2022-10-31T03:06:30;1009.08;;;13.71;76.35
48810;BME280;40070;47.322;18.784;2022-10-31T03:08:35;1009.11;;;13.87;75.69
48810;BME280;40070;47.322;18.784;2022-10-31T03:10:47;1009.16;;;13.80;76.10
48810;BME280;40070;47.322;18.784;2022-10-31T03:15:17;1009.18;;;13.93;75.61
48810;BME280;40070;47.322;18.784;2022-10-31T03:17:23;1009.17;;;13.97;75.50
48810;BME280;40070;47.322;18.784;2022-10-31T03:19:31;1009.22;;;14.09;75.00
48810;BME280;40070;47.322;18.784;2022-10-31T03:21:36;1009.26;;;14.29;74.34
48810;BME280;40070;47.322;18.784;2022-10-31T03:23:43;1009.25;;;14.19;74.40
48810;BME280;40070;47.322;18.784;2022-10-31T03:25:46;1009.25;;;14.31;74.10
48810;BME280;40070;47.322;18.784;2022-10-31T03:27:49;1009.24;;;14.34;74.05
48810;BME280;40070;47.322;18.784;2022-10-31T03:29:54;1009.20;;;14.16;74.42
48810;BME280;40070;47.322;18.784;2022-10-31T03:31:57;1009.22;;;14.22;74.56
48810;BME280;40070;47.322;18.784;2022-10-31T03:34:01;1009.20;;;14.29;74.26
48810;BME280;40070;47.322;18.784;2022-10-31T03:36:04;1009.25;;;14.17;74.54
48810;BME280;40070;47.322;18.784;2022-10-31T03:38:08;1009.24;;;14.34;74.24
48810;BME280;40070;47.322;18.784;2022-10-31T03:40:11;1009.24;;;14.30;73.85
48810;BME280;40070;47.322;18.784;2022-10-31T03:42:15;1009.22;;;14.17;74.34
48810;BME280;40070;47.322;18.784;2022-10-31T03:44:19;1009.26;;;14.01;75.10
48810;BME280;40070;47.322;18.784;2022-10-31T03:46:23;1009.30;;;13.93;75.36
48810;BME280;40070;47.322;18.784;2022-10-31T03:48:26;1009.28;;;13.99;75.43
48810;BME280;40070;47.322;18.784;2022-10-31T03:50:32;1009.29;;;14.16;74.79
48810;BME280;40070;47.322;18.784;2022-10-31T03:52:42;1009.34;;;14.08;75.10
48810;BME280;40070;47.322;18.784;2022-10-31T03:54:51;1009.38;;;14.26;74.21
48810;BME280;40070;47.322;18.784;2022-10-31T03:56:56;1009.36;;;14.17;74.55
48810;BME280;40070;47.322;18.784;2022-10-31T03:59:22;1009.34;;;14.01;75.17
48810;BME280;40070;47.322;18.784;2022-10-31T04:01:25;1009.33;;;14.10;75.00
48810;BME280;40070;47.322;18.784;2022-10-31T04:03:30;1009.32;;;13.97;75.34
48810;BME280;40070;47.322;18.784;2022-10-31T04:05:33;1009.35;;;14.03;75.18
48810;BME280;40070;47.322;18.784;2022-10-31T04:07:37;1009.35;;;13.84;76.02
48810;BME280;40070;47.322;18.784;2022-10-31T04:09:42;1009.40;;;13.81;75.81
48810;BME280;40070;47.322;18.784;2022-10-31T04:11:48;1009.42;;;13.97;75.82
48810;BME280;40070;47.322;18.784;2022-10-31T04:13:52;1009.41;;;14.20;74.70
48810;BME280;40070;47.322;18.784;2022-10-31T04:15:55;1009.49;;;13.94;75.30
48810;BME280;40070;47.322;18.784;2022-10-31T04:17:58;1009.47;;;13.95;75.42
48810;BME280;40070;47.322;18.784;2022-10-31T04:20:02;1009.49;;;13.88;75.75
48810;BME280;40070;47.322;18.784;2022-10-31T04:22:04;1009.48;;;13.91;75.72
48810;BME280;40070;47.322;18.784;2022-10-31T04:24:07;1009.51;;;13.98;75.57
48810;BME280;40070;47.322;18.784;2022-10-31T04:26:12;1009.50;;;14.20;74.70
48810;BME280;40070;47.322;18.784;2022-10-31T04:28:15;1009.52;;;14.05;75.07
48810;BME280;40070;47.322;18.784;2022-10-31T04:30:17;1009.54;;;13.95;75.17
48810;BME280;40070;47.322;18.784;2022-10-31T04:32:19;1009.54;;;14.00;74.85
48810;BME280;40070;47.322;18.784;2022-10-31T04:34:22;1009.55;;;13.79;75.58
48810;BME280;40070;47.322;18.784;2022-10-31T04:36:24;1009.57;;;13.91;75.16
48810;BME280;40070;47.322;18.784;2022-10-31T04:38:26;1009.54;;;14.06;74.87
48810;BME280;40070;47.322;18.784;2022-10-31T04:40:29;1009.55;;;14.18;74.33
48810;BME280;40070;47.322;18.784;2022-10-31T04:42:31;1009.54;;;13.95;74.83
48810;BME280;40070;47.322;18.784;2022-10-31T04:44:34;1009.54;;;13.81;75.26
48810;BME280;40070;47.322;18.784;2022-10-31T04:46:36;1009.57;;;13.90;74.96
48810;BME280;40070;47.322;18.784;2022-10-31T04:48:38;1009.55;;;13.68;75.77
48810;BME280;40070;47.322;18.784;2022-10-31T04:50:41;1009.57;;;13.97;74.76
48810;BME280;40070;47.322;18.784;2022-10-31T04:52:44;1009.57;;;14.00;74.45
48810;BME280;40070;47.322;18.784;2022-10-31T04:54:46;1009.56;;;14.07;74.25
48810;BME280;40070;47.322;18.784;2022-10-31T04:56:49;1009.61;;;13.87;74.63
48810;BME280;40070;47.322;18.784;2022-10-31T04:58:51;1009.59;;;13.93;74.69
48810;BME280;40070;47.322;18.784;2022-10-31T05:00:54;1009.59;;;13.96;74.56
48810;BME280;40070;47.322;18.784;2022-10-31T05:02:57;1009.64;;;14.02;74.31
48810;BME280;40070;47.322;18.784;2022-10-31T05:04:59;1009.65;;;13.93;74.39
48810;BME280;40070;47.322;18.784;2022-10-31T05:07:02;1009.63;;;14.03;74.30
48810;BME280;40070;47.322;18.784;2022-10-31T05:09:04;1009.66;;;14.17;73.73
48810;BME280;40070;47.322;18.784;2022-10-31T05:11:07;1009.65;;;14.21;73.19
48810;BME280;40070;47.322;18.784;2022-10-31T05:13:10;1009.66;;;14.16;73.58
48810;BME280;40070;47.322;18.784;2022-10-31T05:15:12;1009.71;;;14.20;73.41
48810;BME280;40070;47.322;18.784;2022-10-31T05:17:15;1009.72;;;14.25;73.41
48810;BME280;40070;47.322;18.784;2022-10-31T05:19:17;1009.75;;;14.11;73.66
48810;BME280;40070;47.322;18.784;2022-10-31T05:21:19;1009.78;;;14.00;74.20
48810;BME280;40070;47.322;18.784;2022-10-31T05:23:22;1009.79;;;14.07;74.16
48810;BME280;40070;47.322;18.784;2022-10-31T05:25:25;1009.81;;;14.03;74.26
48810;BME280;40070;47.322;18.784;2022-10-31T05:27:28;1009.83;;;13.97;74.56
48810;BME280;40070;47.322;18.784;2022-10-31T05:29:30;1009.83;;;13.97;74.60
48810;BME280;40070;47.322;18.784;2022-10-31T05:31:32;1009.78;;;13.94;74.75
48810;BME280;40070;47.322;18.784;2022-10-31T05:33:35;1009.80;;;13.92;74.86
48810;BME280;40070;47.322;18.784;2022-10-31T05:35:37;1009.77;;;13.79;75.45
48810;BME280;40070;47.322;18.784;2022-10-31T05:37:39;1009.77;;;13.90;75.15
48810;BME280;40070;47.322;18.784;2022-10-31T05:39:42;1009.76;;;13.91;75.29
48810;BME280;40070;47.322;18.784;2022-10-31T05:41:44;1009.74;;;14.09;74.65
48810;BME280;40070;47.322;18.784;2022-10-31T05:43:46;1009.74;;;13.97;74.88
48810;BME280;40070;47.322;18.784;2022-10-31T05:45:51;1009.77;;;14.00;74.91
48810;BME280;40070;47.322;18.784;2022-10-31T05:47:55;1009.76;;;14.11;74.44
48810;BME280;40070;47.322;18.784;2022-10-31T05:49:57;1009.76;;;14.07;74.44
48810;BME280;40070;47.322;18.784;2022-10-31T05:51:59;1009.73;;;14.15;74.39
48810;BME280;40070;47.322;18.784;2022-10-31T05:54:02;1009.73;;;13.96;74.95
48810;BME280;40070;47.322;18.784;2022-10-31T05:56:04;1009.73;;;14.00;74.95
48810;BME280;40070;47.322;18.784;2022-10-31T05:58:07;1009.75;;;14.01;74.83
48810;BME280;40070;47.322;18.784;2022-10-31T06:00:09;1009.77;;;14.03;74.48
48810;BME280;40070;47.322;18.784;2022-10-31T06:02:12;1009.74;;;13.48;76.53
48810;BME280;40070;47.322;18.784;2022-10-31T06:04:14;1009.73;;;13.66;76.33
48810;BME280;40070;47.322;18.784;2022-10-31T06:06:16;1009.79;;;13.47;76.79
48810;BME280;40070;47.322;18.784;2022-10-31T06:08:19;1009.84;;;13.70;76.43
48810;BME280;40070;47.322;18.784;2022-10-31T06:10:21;1009.86;;;13.89;75.84
48810;BME280;40070;47.322;18.784;2022-10-31T06:12:23;1009.88;;;13.81;76.03
48810;BME280;40070;47.322;18.784;2022-10-31T06:14:26;1009.92;;;13.55;76.60
48810;BME280;40070;47.322;18.784;2022-10-31T06:16:28;1009.91;;;13.76;76.21
48810;BME280;40070;47.322;18.784;2022-10-31T06:18:30;1009.88;;;13.65;76.71
48810;BME280;40070;47.322;18.784;2022-10-31T06:20:33;1009.90;;;13.79;76.29
48810;BME280;40070;47.322;18.784;2022-10-31T06:22:35;1009.89;;;13.75;76.25
48810;BME280;40070;47.322;18.784;2022-10-31T06:24:38;1009.96;;;13.88;75.97
48810;BME280;40070;47.322;18.784;2022-10-31T06:26:40;1009.98;;;13.93;75.65
48810;BME280;40070;47.322;18.784;2022-10-31T06:28:42;1009.95;;;14.02;75.51
48810;BME280;40070;47.322;18.784;2022-10-31T06:30:45;1009.95;;;13.92;75.24
48810;BME280;40070;47.322;18.784;2022-10-31T06:32:47;1009.98;;;13.92;75.51
48810;BME280;40070;47.322;18.784;2022-10-31T06:34:49;1009.96;;;13.88;75.68
48810;BME280;40070;47.322;18.784;2022-10-31T06:36:52;1009.95;;;13.87;75.56
48810;BME280;40070;47.322;18.784;2022-10-31T06:38:54;1009.97;;;13.95;75.46
48810;BME280;40070;47.322;18.784;2022-10-31T06:40:57;1010.01;;;13.97;75.60
48810;BME280;40070;47.322;18.784;2022-10-31T06:42:59;1010.02;;;14.13;74.94
48810;BME280;40070;47.322;18.784;2022-10-31T06:45:02;1009.97;;;13.63;75.81
48810;BME280;40070;47.322;18.784;2022-10-31T06:47:05;1009.99;;;13.49;76.77
48810;BME280;40070;47.322;18.784;2022-10-31T06:49:07;1009.95;;;13.63;76.60
48810;BME280;40070;47.322;18.784;2022-10-31T06:51:09;1010.00;;;13.58;77.09
48810;BME280;40070;47.322;18.784;2022-10-31T06:53:12;1009.99;;;13.78;76.15
48810;BME280;40070;47.322;18.784;2022-10-31T06:55:14;1009.95;;;13.65;76.47
48810;BME280;40070;47.322;18.784;2022-10-31T06:57:16;1009.97;;;13.72;76.03
48810;BME280;40070;47.322;18.784;2022-10-31T06:59:19;1010.06;;;13.64;75.97
48810;BME280;40070;47.322;18.784;2022-10-31T07:01:21;1010.06;;;13.52;76.32
48810;BME280;40070;47.322;18.784;2022-10-31T07:03:23;1010.04;;;13.72;76.00
48810;BME280;40070;47.322;18.784;2022-10-31T07:05:26;1010.07;;;13.71;76.49
48810;BME280;40070;47.322;18.784;2022-10-31T07:07:28;1010.15;;;13.95;75.28
48810;BME280;40070;47.322;18.784;2022-10-31T07:09:31;1010.12;;;14.09;74.68
48810;BME280;40070;47.322;18.784;2022-10-31T07:11:33;1010.14;;;14.01;74.97
48810;BME280;40070;47.322;18.784;2022-10-31T07:13:35;1010.25;;;13.98;74.93
48810;BME280;40070;47.322;18.784;2022-10-31T07:15:38;1010.24;;;14.10;74.75
48810;BME280;40070;47.322;18.784;2022-10-31T07:17:41;1010.20;;;13.91;75.36
48810;BME280;40070;47.322;18.784;2022-10-31T07:19:43;1010.19;;;13.77;75.60
48810;BME280;40070;47.322;18.784;2022-10-31T07:21:45;1010.23;;;13.99;75.14
48810;BME280;40070;47.322;18.784;2022-10-31T07:23:48;1010.27;;;13.86;75.60
48810;BME280;40070;47.322;18.784;2022-10-31T07:25:56;1010.29;;;13.63;76.11
48810;BME280;40070;47.322;18.784;2022-10-31T07:27:58;1010.31;;;13.66;76.21
48810;BME280;40070;47.322;18.784;2022-10-31T07:30:01;1010.38;;;13.70;75.92
48810;BME280;40070;47.322;18.784;2022-10-31T07:32:03;1010.34;;;13.69;75.96
48810;BME280;40070;47.322;18.784;2022-10-31T07:34:06;1010.37;;;13.82;75.58
48810;BME280;40070;47.322;18.784;2022-10-31T07:36:08;1010.35;;;13.88;75.58
48810;BME280;40070;47.322;18.784;2022-10-31T07:38:11;1010.36;;;13.97;75.10
48810;BME280;40070;47.322;18.784;2022-10-31T07:40:14;1010.38;;;13.94;75.28
48810;BME280;40070;47.322;18.784;2022-10-31T07:42:16;1010.40;;;13.98;74.76
48810;BME280;40070;47.322;18.784;2022-10-31T07:44:19;1010.38;;;13.96;74.98
48810;BME280;40070;47.322;18.784;2022-10-31T07:46:21;1010.38;;;14.22;74.22
48810;BME280;40070;47.322;18.784;2022-10-31T07:48:24;1010.35;;;14.17;74.32
48810;BME280;40070;47.322;18.784;2022-10-31T07:50:28;1010.36;;;14.03;74.63
48810;BME280;40070;47.322;18.784;2022-10-31T07:52:31;1010.35;;;13.98;75.06
48810;BME280;40070;47.322;18.784;2022-10-31T07:54:33;1010.39;;;13.99;74.88
48810;BME280;40070;47.322;18.784;2022-10-31T07:56:35;1010.35;;;13.98;74.64
48810;BME280;40070;47.322;18.784;2022-10-31T07:58:38;1010.38;;;13.77;75.48
48810;BME280;40070;47.322;18.784;2022-10-31T08:00:41;1010.36;;;13.75;75.64
48810;BME280;40070;47.322;18.784;2022-10-31T08:02:44;1010.38;;;13.88;75.56
48810;BME280;40070;47.322;18.784;2022-10-31T08:04:46;1010.39;;;14.08;74.98
48810;BME280;40070;47.322;18.784;2022-10-31T08:06:48;1010.46;;;13.37;76.90
48810;BME280;40070;47.322;18.784;2022-10-31T08:08:51;1010.51;;;13.38;77.23
48810;BME280;40070;47.322;18.784;2022-10-31T08:10:53;1010.43;;;13.72;76.65
48810;BME280;40070;47.322;18.784;2022-10-31T08:12:57;1010.44;;;13.85;76.05
48810;BME280;40070;47.322;18.784;2022-10-31T08:14:59;1010.45;;;13.72;76.36
48810;BME280;40070;47.322;18.784;2022-10-31T08:17:02;1010.48;;;13.13;78.43
48810;BME280;40070;47.322;18.784;2022-10-31T08:19:04;1010.49;;;13.47;78.21
48810;BME280;40070;47.322;18.784;2022-10-31T08:21:06;1010.51;;;13.39;78.18
48810;BME280;40070;47.322;18.784;2022-10-31T08:23:09;1010.47;;;13.63;77.47
48810;BME280;40070;47.322;18.784;2022-10-31T08:25:12;1010.46;;;13.42;77.40
48810;BME280;40070;47.322;18.784;2022-10-31T08:27:14;1010.43;;;13.68;76.79
48810;BME280;40070;47.322;18.784;2022-10-31T08:29:17;1010.43;;;13.72;76.71
48810;BME280;40070;47.322;18.784;2022-10-31T08:31:19;1010.44;;;14.03;75.70
48810;BME280;40070;47.322;18.784;2022-10-31T08:33:21;1010.44;;;14.12;75.06
48810;BME280;40070;47.322;18.784;2022-10-31T08:35:24;1010.42;;;14.15;74.84
48810;BME280;40070;47.322;18.784;2022-10-31T08:37:26;1010.42;;;14.40;73.76
48810;BME280;40070;47.322;18.784;2022-10-31T08:39:28;1010.42;;;13.94;75.21
48810;BME280;40070;47.322;18.784;2022-10-31T08:41:31;1010.40;;;13.86;76.46
48810;BME280;40070;47.322;18.784;2022-10-31T08:43:33;1010.37;;;14.03;75.81
48810;BME280;40070;47.322;18.784;2022-10-31T08:45:35;1010.38;;;14.04;75.42
48810;BME280;40070;47.322;18.784;2022-10-31T08:47:38;1010.42;;;14.06;75.82
48810;BME280;40070;47.322;18.784;2022-10-31T08:49:40;1010.45;;;14.17;75.45
48810;BME280;40070;47.322;18.784;2022-10-31T08:51:42;1010.45;;;14.23;74.79
48810;BME280;40070;47.322;18.784;2022-10-31T08:53:45;1010.45;;;14.38;74.02
48810;BME280;40070;47.322;18.784;2022-10-31T08:55:47;1010.49;;;14.18;74.53
48810;BME280;40070;47.322;18.784;2022-10-31T08:57:54;1010.47;;;14.18;75.14
48810;BME280;40070;47.322;18.784;2022-10-31T08:59:56;1010.47;;;14.42;74.01
48810;BME280;40070;47.322;18.784;2022-10-31T09:01:58;1010.46;;;14.38;74.02
48810;BME280;40070;47.322;18.784;2022-10-31T09:04:01;1010.46;;;14.31;74.64
48810;BME280;40070;47.322;18.784;2022-10-31T09:06:03;1010.51;;;14.17;75.25
48810;BME280;40070;47.322;18.784;2022-10-31T09:08:06;1010.53;;;14.34;74.97
48810;BME280;40070;47.322;18.784;2022-10-31T09:10:08;1010.48;;;14.29;74.97
48810;BME280;40070;47.322;18.784;2022-10-31T09:12:11;1010.50;;;14.35;75.22
48810;BME280;40070;47.322;18.784;2022-10-31T09:14:13;1010.48;;;14.15;75.08
48810;BME280;40070;47.322;18.784;2022-10-31T09:16:16;1010.48;;;14.24;75.36
48810;BME280;40070;47.322;18.784;2022-10-31T09:18:19;1010.45;;;14.33;74.71
48810;BME280;40070;47.322;18.784;2022-10-31T09:20:22;1010.46;;;14.33;74.90
48810;BME280;40070;47.322;18.784;2022-10-31T09:22:24;1010.44;;;14.26;75.41
48810;BME280;40070;47.322;18.784;2022-10-31T09:24:26;1010.44;;;14.36;75.18
48810;BME280;40070;47.322;18.784;2022-10-31T09:26:29;1010.49;;;14.29;75.12
48810;BME280;40070;47.322;18.784;2022-10-31T09:28:31;1010.57;;;14.48;74.78
48810;BME280;40070;47.322;18.784;2022-10-31T09:30:34;1010.58;;;14.42;75.17
48810;BME280;40070;47.322;18.784;2022-10-31T09:32:37;1010.59;;;14.39;74.92
48810;BME280;40070;47.322;18.784;2022-10-31T09:34:39;1010.62;;;14.51;74.45
48810;BME280;40070;47.322;18.784;2022-10-31T09:36:41;1010.59;;;14.48;74.36
48810;BME280;40070;47.322;18.784;2022-10-31T09:38:44;1010.60;;;14.65;73.79
48810;BME280;40070;47.322;18.784;2022-10-31T09:40:54;1010.59;;;14.69;73.56
48810;BME280;40070;47.322;18.784;2022-10-31T09:43:14;1010.60;;;14.38;74.41
48810;BME280;40070;47.322;18.784;2022-10-31T09:45:19;1010.57;;;14.53;74.30
48810;BME280;40070;47.322;18.784;2022-10-31T09:47:26;1010.58;;;14.40;74.17
48810;BME280;40070;47.322;18.784;2022-10-31T09:49:53;1010.58;;;14.32;75.07
48810;BME280;40070;47.322;18.784;2022-10-31T09:52:05;1010.54;;;14.51;74.26
48810;BME280;40070;47.322;18.784;2022-10-31T09:54:30;1010.55;;;14.35;74.97
48810;BME280;40070;47.322;18.784;2022-10-31T09:56:34;1010.58;;;14.14;75.81
48810;BME280;40070;47.322;18.784;2022-10-31T09:58:55;1010.57;;;14.35;75.19
48810;BME280;40070;47.322;18.784;2022-10-31T10:00:55;1010.57;;;14.39;74.78
48810;BME280;40070;47.322;18.784;2022-10-31T10:03:07;1010.57;;;14.42;74.84
48810;BME280;40070;47.322;18.784;2022-10-31T10:05:14;1010.54;;;14.52;74.59
48810;BME280;40070;47.322;18.784;2022-10-31T10:07:22;1010.51;;;14.51;74.47
48810;BME280;40070;47.322;18.784;2022-10-31T10:09:27;1010.50;;;14.45;74.50
48810;BME280;40070;47.322;18.784;2022-10-31T10:11:43;1010.44;;;14.70;73.90
48810;BME280;40070;47.322;18.784;2022-10-31T10:14:03;1010.44;;;14.46;74.72
48810;BME280;40070;47.322;18.784;2022-10-31T10:16:10;1010.46;;;14.34;75.35
48810;BME280;40070;47.322;18.784;2022-10-31T10:27:36;1010.40;;;14.68;74.49
48810;BME280;40070;47.322;18.784;2022-10-31T10:31:54;1010.36;;;14.56;75.38
48810;BME280;40070;47.322;18.784;2022-10-31T10:36:14;1010.39;;;14.64;74.74
48810;BME280;40070;47.322;18.784;2022-10-31T10:38:37;1010.38;;;14.60;74.86
48810;BME280;40070;47.322;18.784;2022-10-31T10:40:41;1010.38;;;14.46;75.27
48810;BME280;40070;47.322;18.784;2022-10-31T10:42:50;1010.36;;;14.48;74.86
48810;BME280;40070;47.322;18.784;2022-10-31T10:44:57;1010.37;;;14.35;75.68
48810;BME280;40070;47.322;18.784;2022-10-31T10:47:00;1010.33;;;14.34;75.89
48810;BME280;40070;47.322;18.784;2022-10-31T10:49:14;1010.39;;;14.50;75.27
48810;BME280;40070;47.322;18.784;2022-10-31T10:51:21;1010.37;;;14.53;75.50
48810;BME280;40070;47.322;18.784;2022-10-31T10:55:56;1010.32;;;14.52;75.57
48810;BME280;40070;47.322;18.784;2022-10-31T10:58:00;1010.28;;;14.88;74.12
48810;BME280;40070;47.322;18.784;2022-10-31T11:02:30;1010.37;;;14.72;74.47
48810;BME280;40070;47.322;18.784;2022-10-31T11:04:34;1010.32;;;14.58;75.15
48810;BME280;40070;47.322;18.784;2022-10-31T11:06:37;1010.31;;;14.48;75.91
48810;BME280;40070;47.322;18.784;2022-10-31T11:08:39;1010.29;;;14.63;75.48
48810;BME280;40070;47.322;18.784;2022-10-31T11:10:41;1010.26;;;14.56;75.43
48810;BME280;40070;47.322;18.784;2022-10-31T11:12:45;1010.24;;;14.53;75.26
48810;BME280;40070;47.322;18.784;2022-10-31T11:14:50;1010.23;;;14.59;75.23
48810;BME280;40070;47.322;18.784;2022-10-31T11:17:07;1010.24;;;14.83;74.25
48810;BME280;40070;47.322;18.784;2022-10-31T11:19:17;1010.19;;;14.75;74.18
48810;BME280;40070;47.322;18.784;2022-10-31T11:21:29;1010.24;;;14.60;74.89
48810;BME280;40070;47.322;18.784;2022-10-31T11:23:32;1010.21;;;14.71;74.62
48810;BME280;40070;47.322;18.784;2022-10-31T11:25:34;1010.22;;;14.62;74.41
48810;BME280;40070;47.322;18.784;2022-10-31T11:27:37;1010.20;;;14.69;74.51
48810;BME280;40070;47.322;18.784;2022-10-31T11:29:39;1010.20;;;14.50;75.02
48810;BME280;40070;47.322;18.784;2022-10-31T11:31:42;1010.19;;;14.57;75.23